createdAt,value
2023-03-06T00:00:35.308Z,-28.4
2023-03-06T00:04:38.522Z,-53.4
2023-03-06T00:06:39.658Z,-28.4
2023-03-06T00:08:40.769Z,-28.4
2023-03-06T00:10:42.673Z,-28.3
2023-03-06T00:12:44.102Z,-28.3
2023-03-06T00:14:45.520Z,-28.3
2023-03-06T00:16:47.013Z,-28.2
2023-03-06T00:22:51.589Z,-28
2023-03-06T00:24:52.941Z,-28.2
2023-03-06T00:26:54.420Z,-53.4
2023-03-06T00:28:55.635Z,-30.3
2023-03-06T00:30:57.641Z,-53.3
2023-03-06T00:32:58.972Z,-53
2023-03-06T00:35:00.447Z,-27.9
2023-03-06T00:37:02.193Z,-52.9
2023-03-06T00:39:03.717Z,-28.2
2023-03-06T00:41:05.608Z,-52.9
2023-03-06T00:43:07.142Z,-28.2
2023-03-06T00:45:09.114Z,-53.4
2023-03-06T00:47:11.034Z,-27.9
2023-03-06T00:49:12.378Z,-28.1
2023-03-06T00:51:14.230Z,-28
2023-03-06T00:53:16.011Z,-27.9
2023-03-06T00:55:17.058Z,-28.2
2023-03-06T00:57:18.852Z,-28
2023-03-06T00:59:19.944Z,-53.3
2023-03-06T01:01:21.349Z,-27.8
2023-03-06T01:03:22.771Z,-27.8
2023-03-06T01:05:24.139Z,-27.9
2023-03-06T01:09:27.713Z,-28.2
2023-03-06T01:11:29.173Z,-28.4
2023-03-06T01:13:31.032Z,-28.2
2023-03-06T01:15:32.765Z,-28.2
2023-03-06T01:19:36.226Z,-53.2
2023-03-06T01:21:37.414Z,-28
2023-03-06T01:23:38.631Z,-53.2
2023-03-06T01:25:39.779Z,-28
2023-03-06T01:27:41.643Z,-27.8
2023-03-06T01:29:43.507Z,-53.3
2023-03-06T01:31:45.248Z,-28
2023-03-06T01:33:47.218Z,-28.2
2023-03-06T01:35:48.331Z,-28.2
2023-03-06T01:37:49.747Z,-28.1
2023-03-06T01:39:51.498Z,-28
2023-03-06T01:41:52.767Z,-27.9
2023-03-06T01:43:54.217Z,-27.8
2023-03-06T01:45:55.265Z,-28.1
2023-03-06T01:48:40.733Z,-28.1
2023-03-06T01:50:41.793Z,-27.8
2023-03-06T01:52:43.088Z,-28.2
2023-03-06T01:54:44.456Z,-53
2023-03-06T01:58:47.294Z,-28.4
2023-03-06T02:00:48.338Z,-28
2023-03-06T02:02:49.722Z,-28.2
2023-03-06T02:04:51.587Z,-27.9
2023-03-06T02:06:53.336Z,-28.1
2023-03-06T02:08:55.088Z,-28.1
2023-03-06T02:12:58.180Z,-53.2
2023-03-06T02:14:59.425Z,-27.7
2023-03-06T02:17:01.349Z,-53.4
2023-03-06T02:19:02.697Z,-53
2023-03-06T02:21:03.896Z,-28.1
2023-03-06T02:23:05.876Z,-53.2
2023-03-06T02:25:07.858Z,-28
2023-03-06T02:27:09.698Z,-28
2023-03-06T02:29:11.659Z,-28
2023-03-06T02:31:13.622Z,-28
2023-03-06T02:33:15.050Z,-28.2
2023-03-06T02:35:16.724Z,-27.9
2023-03-06T02:37:17.890Z,-27.8
2023-03-06T02:39:19.377Z,-27.8
2023-03-06T02:41:21.246Z,-28.1
2023-03-06T02:43:22.279Z,-27.9
2023-03-06T02:45:24.061Z,-28.2
2023-03-06T02:47:25.570Z,-28.3
2023-03-06T02:49:26.975Z,-53.1
2023-03-06T02:51:28.766Z,-27.9
2023-03-06T02:57:33.543Z,-27.9
2023-03-06T02:59:34.827Z,-28
2023-03-06T03:01:35.994Z,-53.2
2023-03-06T03:03:37.444Z,-28.1
2023-03-06T03:05:38.733Z,-28
2023-03-06T03:07:40.355Z,-52.8
2023-03-06T03:09:41.509Z,-27.9
2023-03-06T03:11:43.147Z,-27.9
2023-03-06T03:13:44.944Z,-27.9
2023-03-06T03:17:47.599Z,-53.3
2023-03-06T03:19:48.752Z,-28.1
2023-03-06T03:21:49.949Z,-52.7
2023-03-06T03:23:51.742Z,-53.1
2023-03-06T03:27:55.335Z,-27.8
2023-03-06T03:29:57.119Z,-28
2023-03-06T03:31:58.405Z,-28.1
2023-03-06T03:33:59.915Z,-27.9
2023-03-06T03:40:04.387Z,-28
2023-03-06T03:42:05.788Z,-28.2
2023-03-06T03:44:07.533Z,-27.9
2023-03-06T03:46:08.693Z,-52.9
2023-03-06T03:48:09.760Z,-27.9
2023-03-06T03:50:11.728Z,-27.7
2023-03-06T03:54:13.841Z,-28
2023-03-06T03:56:15.691Z,-27.8
2023-03-06T03:58:17.054Z,-27.9
2023-03-06T04:00:18.747Z,-53.4
2023-03-06T04:06:22.926Z,-28
2023-03-06T04:08:24.166Z,-27.8
2023-03-06T04:10:25.448Z,-53.1
2023-03-06T04:12:27.284Z,-27.9
2023-03-06T04:14:29.048Z,-28
2023-03-06T04:16:30.455Z,-28.2
2023-03-06T04:18:32.045Z,-27.9
2023-03-06T04:20:33.113Z,-28.1
2023-03-06T04:22:34.739Z,-28.2
2023-03-06T04:24:35.929Z,-27.7
2023-03-06T04:26:37.107Z,-27.9
2023-03-06T04:28:38.522Z,-51.9
2023-03-06T04:30:39.597Z,-27.9
2023-03-06T04:32:41.322Z,-28
2023-03-06T04:34:43.132Z,-52.7
2023-03-06T04:36:44.845Z,-28
2023-03-06T04:38:46.499Z,-53.3
2023-03-06T04:40:48.479Z,-28.3
2023-03-06T04:42:50.035Z,-28.2
2023-03-06T04:44:51.360Z,-28
2023-03-06T04:46:52.928Z,-28.1
2023-03-06T04:48:54.401Z,-28
2023-03-06T04:52:57.312Z,-27.9
2023-03-06T04:54:58.778Z,-27.9
2023-03-06T04:57:00.307Z,-28
2023-03-06T04:59:01.897Z,-53.3
2023-03-06T05:05:06.670Z,-28
2023-03-06T05:07:08.456Z,-28.1
2023-03-06T05:09:10.356Z,-28.2
2023-03-06T05:11:11.583Z,-27.9
2023-03-06T05:13:13.597Z,-28
2023-03-06T05:15:14.876Z,-28
2023-03-06T05:17:16.472Z,-51.6
2023-03-06T05:19:18.328Z,-38.59
2023-03-06T05:21:19.805Z,-28.4
2023-03-06T05:23:20.979Z,-53
2023-03-06T05:25:22.577Z,-28.2
2023-03-06T05:27:24.291Z,-28.4
2023-03-06T05:29:25.709Z,-29.3
2023-03-06T05:31:27.425Z,-29.1
2023-03-06T05:35:29.925Z,-28
2023-03-06T05:37:31.123Z,-44.5
2023-03-06T05:39:32.493Z,-27.9
2023-03-06T05:41:33.949Z,-27.7
2023-03-06T05:47:38.416Z,-27.8
2023-03-06T05:49:39.743Z,-53
2023-03-06T05:51:41.496Z,-28
2023-03-06T05:53:42.816Z,-28.2
2023-03-06T05:55:44.775Z,-28
2023-03-06T05:57:46.626Z,-28.2
2023-03-06T05:59:47.825Z,-27.9
2023-03-06T06:01:49.063Z,-53
2023-03-06T06:03:51.121Z,-52.9
2023-03-06T06:05:52.547Z,-28.2
2023-03-06T06:07:53.615Z,-28.2
2023-03-06T06:09:55.087Z,-28.2
2023-03-06T06:11:56.571Z,-28.5
2023-03-06T06:13:58.270Z,-28.2
2023-03-06T06:16:00.288Z,-28
2023-03-06T06:18:02.054Z,-28
2023-03-06T06:20:03.156Z,-28.3
2023-03-06T06:22:04.932Z,-28
2023-03-06T06:24:06.879Z,-31.3
2023-03-06T06:26:07.955Z,-27.9
2023-03-06T06:30:11.143Z,-27.8
2023-03-06T06:32:12.693Z,-30.7
2023-03-06T06:34:14.537Z,-29.1
2023-03-06T06:36:16.033Z,-28.3
2023-03-06T06:38:17.591Z,-53.1
2023-03-06T06:40:18.685Z,-53
2023-03-06T06:44:21.362Z,-53.3
2023-03-06T06:46:59.177Z,-28
2023-03-06T06:48:24.695Z,-27.8
2023-03-06T06:50:26.064Z,-27.7
2023-03-06T06:52:27.087Z,-31.7
2023-03-06T06:54:28.217Z,-28
2023-03-06T06:56:29.894Z,-53
2023-03-06T06:58:31.217Z,-28
2023-03-06T07:00:33.126Z,-30.8
2023-03-06T07:02:34.974Z,-53.4
2023-03-06T07:06:38.604Z,-27.8
2023-03-06T07:08:39.791Z,-27.8
2023-03-06T07:10:41.590Z,-53.2
2023-03-06T07:12:42.766Z,-27.8
2023-03-06T07:16:45.249Z,-28.1
2023-03-06T07:18:46.468Z,-27.9
2023-03-06T07:20:48.351Z,-51.4
2023-03-06T07:22:51.595Z,-27.9
2023-03-06T07:28:54.197Z,-28.5
2023-03-06T07:30:55.899Z,-28
2023-03-06T07:32:57.097Z,-53.3
2023-03-06T07:35:17.339Z,-53.2
2023-03-06T07:37:00.245Z,-53.3
2023-03-06T07:39:02.089Z,-28.2
2023-03-06T07:43:17.117Z,-28.4
2023-03-06T07:45:05.722Z,-53.5
2023-03-06T07:47:06.848Z,-30.9
2023-03-06T07:49:08.866Z,-27.9
2023-03-06T07:53:11.636Z,-29.2
2023-03-06T07:55:12.640Z,-27.7
2023-03-06T07:57:13.713Z,-26.8
2023-03-06T07:59:14.974Z,-45.2
2023-03-06T08:01:16.165Z,-18.5
2023-03-06T08:03:18.072Z,-22.2
2023-03-06T08:05:19.882Z,-25.2
2023-03-06T08:09:22.971Z,-51.7
2023-03-06T08:11:24.352Z,-53.2
2023-03-06T08:13:25.541Z,-27.9
2023-03-06T08:15:26.790Z,-30.1
2023-03-06T08:17:28.295Z,-53.1
2023-03-06T08:19:29.606Z,-28.2
2023-03-06T08:21:30.727Z,-27.9
2023-03-06T08:23:32.585Z,-27.9
2023-03-06T08:25:34.346Z,-52.9
2023-03-06T08:27:35.816Z,-28.5
2023-03-06T08:29:37.507Z,-24.9
2023-03-06T08:31:38.729Z,-42.8
2023-03-06T08:32:22.629Z,-23.6
2023-03-06T08:36:26.180Z,-25.7
2023-03-06T08:38:28.062Z,-19.2
2023-03-06T08:40:39.888Z,-18.4
2023-03-06T08:42:31.769Z,9.39
2023-03-06T08:44:33.482Z,12.5
2023-03-06T08:46:35.054Z,-8.8
2023-03-06T08:48:36.780Z,21.3
2023-03-06T08:50:38.345Z,28.1
2023-03-06T08:52:39.354Z,5.6
2023-03-06T08:54:41.202Z,29.7
2023-03-06T08:56:43.153Z,29.7
2023-03-06T08:58:44.682Z,34.9
2023-03-06T09:00:46.269Z,19
2023-03-06T09:02:47.692Z,26.8
2023-03-06T09:04:49.190Z,32.3
2023-03-06T09:06:50.823Z,56.8
2023-03-06T09:08:52.398Z,62.5
2023-03-06T09:10:53.426Z,55.2
2023-03-06T09:12:55.139Z,55.7
2023-03-06T09:14:55.948Z,48
2023-03-06T09:16:57.670Z,40.5
2023-03-06T09:18:58.809Z,39.9
2023-03-06T09:21:00.147Z,31.2
2023-03-06T09:23:01.779Z,24.5
2023-03-06T09:25:03.125Z,24
2023-03-06T09:31:08.011Z,20.9
2023-03-06T09:33:09.584Z,23.5
2023-03-06T09:35:10.836Z,25.5
2023-03-06T09:37:12.162Z,25.4
2023-03-06T09:39:14.037Z,19.5
2023-03-06T09:41:15.800Z,30
2023-03-06T09:43:16.723Z,35
2023-03-06T09:45:18.680Z,39.4
2023-03-06T09:47:19.972Z,48.3
2023-03-06T09:49:21.089Z,55.7
2023-03-06T09:51:22.280Z,57.9
2023-03-06T09:53:24.042Z,59.2
2023-03-06T09:55:25.224Z,56.6
2023-03-06T09:57:26.548Z,64.5
2023-03-06T09:59:28.456Z,73
2023-03-06T10:01:29.877Z,74
2023-03-06T10:03:31.047Z,57.5
2023-03-06T10:05:32.023Z,81.9
2023-03-06T10:07:33.947Z,81.6
2023-03-06T10:09:35.119Z,81.6
2023-03-06T10:11:36.636Z,81.5
2023-03-06T10:13:38.436Z,81.3
2023-03-06T10:15:39.705Z,56.2
2023-03-06T10:17:40.762Z,82.2
2023-03-06T10:19:42.523Z,56.5
2023-03-06T10:23:45.578Z,73.19
2023-03-06T10:25:47.449Z,56.1
2023-03-06T10:27:48.735Z,56.2
2023-03-06T10:30:01.485Z,82.3
2023-03-06T10:31:51.648Z,82
2023-03-06T10:33:52.594Z,66.1
2023-03-06T10:35:54.800Z,82.1
2023-03-06T10:37:56.586Z,81.69
2023-03-06T10:39:57.781Z,56.3
2023-03-06T10:41:59.857Z,81.8
2023-03-06T10:44:01.255Z,82
2023-03-06T10:46:02.662Z,56.3
2023-03-06T10:50:08.107Z,82
2023-03-06T10:52:07.547Z,82.1
2023-03-06T10:54:09.325Z,-4.1
2023-03-06T10:56:11.269Z,9.2
2023-03-06T11:00:13.824Z,-8.1
2023-03-06T11:02:15.765Z,21
2023-03-06T11:04:17.340Z,19.6
2023-03-06T11:06:19.172Z,-4.19
2023-03-06T11:12:23.531Z,16.6
2023-03-06T11:14:27.221Z,4.3
2023-03-06T11:16:26.515Z,13.1
2023-03-06T11:18:27.549Z,-7.6
2023-03-06T11:20:31.749Z,-7.5
2023-03-06T11:22:30.067Z,16
2023-03-06T11:26:32.444Z,-19.1
2023-03-06T11:28:34.089Z,-7.5
2023-03-06T11:30:35.751Z,-7.2
2023-03-06T11:32:37.673Z,-6.3
2023-03-06T11:36:41.244Z,-8.89
2023-03-06T11:38:43.200Z,8.6
2023-03-06T11:42:46.797Z,-11.5
2023-03-06T11:44:47.836Z,-11.8
2023-03-06T11:46:49.070Z,-9.2
2023-03-06T11:48:51.000Z,18
2023-03-06T11:54:55.963Z,-3.9
2023-03-06T11:56:57.300Z,-12.3
2023-03-06T11:58:58.392Z,14.2
2023-03-06T12:00:59.452Z,32.09
2023-03-06T12:03:00.960Z,55.9
2023-03-06T12:05:02.273Z,82
2023-03-06T12:09:04.813Z,56.3
2023-03-06T12:11:06.290Z,56.2
2023-03-06T12:13:07.352Z,56.1
2023-03-06T12:15:08.820Z,82.2
2023-03-06T12:21:13.170Z,14.9
2023-03-06T12:23:15.596Z,9.6
2023-03-06T12:25:15.405Z,-21.8
2023-03-06T12:27:16.464Z,-3
2023-03-06T12:29:18.006Z,6.1
2023-03-06T12:31:19.412Z,8.6
2023-03-06T12:35:23.040Z,-16.9
2023-03-06T12:37:24.191Z,11.8
2023-03-06T12:39:25.895Z,37.09
2023-03-06T12:41:28.008Z,56.6
2023-03-06T12:43:29.026Z,56.2
2023-03-06T12:45:30.670Z,67.9
2023-03-06T12:47:31.924Z,81.9
2023-03-06T12:49:33.731Z,77.1
2023-03-06T12:51:35.149Z,56.2
2023-03-06T12:53:37.370Z,75.5
2023-03-06T12:55:39.200Z,77.3
2023-03-06T12:57:40.543Z,82.1
2023-03-06T12:59:41.535Z,56.1
2023-03-06T13:01:43.292Z,80.6
2023-03-06T13:03:44.874Z,56.5
2023-03-06T13:07:47.814Z,56.1
2023-03-06T13:09:49.288Z,82.2
2023-03-06T13:11:50.605Z,-6.3
2023-03-06T13:13:52.459Z,-18.79
2023-03-06T13:19:56.826Z,38.59
2023-03-06T13:21:58.445Z,58.7
2023-03-06T13:24:00.299Z,39.7
2023-03-06T13:26:02.349Z,-10.9
2023-03-06T13:28:03.733Z,-31.6
2023-03-06T13:30:05.593Z,-12.6
2023-03-06T13:32:06.917Z,-18.5
2023-03-06T13:34:08.614Z,-13.6
2023-03-06T13:36:10.517Z,-9
2023-03-06T13:38:11.520Z,-36.09
2023-03-06T13:40:12.913Z,-38.5
2023-03-06T13:42:14.725Z,-19
2023-03-06T13:44:16.189Z,-19
2023-03-06T13:46:17.221Z,-27.7
2023-03-06T13:50:20.070Z,-33.8
2023-03-06T13:52:21.742Z,0.8
2023-03-06T13:54:23.449Z,-19.2
2023-03-06T13:56:25.393Z,-24.8
2023-03-06T14:02:29.691Z,-11.6
2023-03-06T14:04:31.544Z,-33.7
2023-03-06T14:06:33.109Z,-23
2023-03-06T14:08:34.119Z,6
2023-03-06T14:10:35.374Z,0.1
2023-03-06T14:12:36.715Z,22
2023-03-06T14:16:49.187Z,48.5
2023-03-06T14:18:40.644Z,49.8
2023-03-06T14:20:42.509Z,16.2
2023-03-06T14:22:43.516Z,30.4
2023-03-06T14:24:45.073Z,12
2023-03-06T14:26:46.216Z,30.5
2023-03-06T14:28:48.110Z,34
2023-03-06T14:30:49.221Z,12.8
2023-03-06T14:32:50.864Z,6.6
2023-03-06T14:34:51.846Z,-7.8
2023-03-06T14:38:54.564Z,-6.2
2023-03-06T14:40:55.831Z,21.2
2023-03-06T14:42:57.211Z,19.7
2023-03-06T14:44:59.038Z,18.6
2023-03-06T14:49:01.683Z,31.8
2023-03-06T14:51:02.721Z,49.7
2023-03-06T14:53:04.342Z,38.8
2023-03-06T14:55:05.637Z,39.7
2023-03-06T14:59:08.022Z,49.2
2023-03-06T15:01:09.521Z,56.5
2023-03-06T15:03:10.954Z,56.3
2023-03-06T15:05:12.753Z,56.1
2023-03-06T15:07:14.175Z,-4.9
2023-03-06T15:09:15.297Z,-12.4
2023-03-06T15:11:17.256Z,-21.3
2023-03-06T15:15:20.725Z,-32.2
2023-03-06T15:17:22.471Z,-29.8
2023-03-06T15:18:06.325Z,-31.3
2023-03-06T15:22:09.074Z,-33.59
2023-03-06T15:26:11.506Z,-36.59
2023-03-06T15:28:13.006Z,-38.8
2023-03-06T15:30:14.175Z,-13
2023-03-06T15:32:15.556Z,-40.2
2023-03-06T15:38:19.001Z,-46.8
2023-03-06T15:40:20.098Z,-26.2
2023-03-06T15:42:21.455Z,-53.2
2023-03-06T15:44:22.849Z,-30.4
2023-03-06T15:46:24.025Z,-53.6
2023-03-06T15:48:25.239Z,-28.1
2023-03-06T15:52:28.529Z,-30.6
2023-03-06T15:54:31.366Z,-28.2
2023-03-06T15:56:31.425Z,-53.8
2023-03-06T15:58:32.898Z,-28.5
2023-03-06T16:00:34.533Z,-53.3
2023-03-06T16:02:35.519Z,-53.7
2023-03-06T16:04:36.544Z,-28.7
2023-03-06T16:06:38.049Z,-53.7
2023-03-06T16:08:39.265Z,-53.8
2023-03-06T16:10:40.266Z,-28.5
2023-03-06T16:14:43.119Z,-54.1
2023-03-06T16:16:44.210Z,-28.6
2023-03-06T16:18:45.264Z,-33.4
2023-03-06T16:20:46.461Z,-28.3
2023-03-06T16:22:48.181Z,-53.9
2023-03-06T16:24:49.323Z,-28.1
2023-03-06T16:26:50.868Z,-33.09
2023-03-06T16:28:52.103Z,-44.1
2023-03-06T16:30:53.615Z,-53.5
2023-03-06T16:32:54.811Z,-28.3
2023-03-06T16:34:56.610Z,-28.3
2023-03-06T16:36:57.648Z,-50.3
2023-03-06T16:38:59.194Z,-53.7
2023-03-06T16:41:00.244Z,-53.2
2023-03-06T16:43:01.680Z,-53.5
2023-03-06T16:47:05.041Z,-53.7
2023-03-06T16:49:06.084Z,-53.5
2023-03-06T16:51:07.522Z,-53.6
2023-03-06T16:53:08.771Z,-28
2023-03-06T16:57:11.433Z,-53.7
2023-03-06T16:59:13.315Z,-53.3
2023-03-06T17:01:14.750Z,-27.9
2023-03-06T17:03:15.645Z,-51.4
2023-03-06T17:09:20.413Z,-53.1
2023-03-06T17:11:21.957Z,-53.4
2023-03-06T17:13:23.936Z,-53.3
2023-03-06T17:15:24.981Z,-28
2023-03-06T17:17:26.619Z,-28
2023-03-06T17:19:28.558Z,-28.6
2023-03-06T17:23:30.894Z,-28
2023-03-06T17:25:31.972Z,-27.8
2023-03-06T17:27:33.923Z,-28
2023-03-06T17:29:35.783Z,-27.7
2023-03-06T17:35:40.349Z,-53.3
2023-03-06T17:37:41.573Z,-53.1
2023-03-06T17:39:43.297Z,-53.3
2023-03-06T17:41:46.326Z,-27.7
2023-03-06T17:43:45.873Z,-27.8
2023-03-06T17:45:47.840Z,-53
2023-03-06T17:47:49.216Z,-27.9
2023-03-06T17:49:50.971Z,-28.3
2023-03-06T17:51:52.771Z,-27.9
2023-03-06T17:53:54.132Z,-27.8
2023-03-06T17:55:55.646Z,-53.2
2023-03-06T17:57:56.635Z,-51.7
2023-03-06T17:59:58.097Z,-27.9
2023-03-06T18:01:59.880Z,-27.9
2023-03-06T18:04:01.439Z,-28.3
2023-03-06T18:06:02.818Z,-28
2023-03-06T18:08:04.423Z,-27.8
2023-03-06T18:10:05.512Z,-53.6
2023-03-06T18:12:07.129Z,-27.8
2023-03-06T18:14:08.624Z,-27.8
2023-03-06T18:18:11.958Z,-28
2023-03-06T18:20:13.692Z,-27.8
2023-03-06T18:22:15.189Z,-27.9
2023-03-06T18:24:16.620Z,-53.3
2023-03-06T18:26:17.793Z,-27.9
2023-03-06T18:28:18.911Z,-27.9
2023-03-06T18:32:21.652Z,-28.1
2023-03-06T18:34:22.767Z,-27.6
2023-03-06T18:36:23.875Z,-27.7
2023-03-06T18:38:25.826Z,-28
2023-03-06T18:40:27.068Z,-28.2
2023-03-06T18:42:29.049Z,-53.3
2023-03-06T18:44:30.683Z,-27.9
2023-03-06T18:46:32.561Z,-28
2023-03-06T18:48:34.279Z,-27.7
2023-03-06T18:50:35.967Z,-27.9
2023-03-06T18:52:37.181Z,-27.9
2023-03-06T18:54:38.668Z,-27.9
2023-03-06T18:56:39.953Z,-28
2023-03-06T18:58:41.083Z,-27.9
2023-03-06T19:00:42.867Z,-27.8
2023-03-06T19:02:43.938Z,-27.8
2023-03-06T19:04:45.123Z,-27.8
2023-03-06T19:06:46.213Z,-53.5
2023-03-06T19:08:47.410Z,-27.9
2023-03-06T19:10:48.963Z,-28.2
2023-03-06T19:12:50.890Z,-28
2023-03-06T19:16:53.944Z,-27.8
2023-03-06T19:18:55.387Z,-27.7
2023-03-06T19:20:56.595Z,-27.9
2023-03-06T19:22:57.767Z,-27.9
2023-03-06T19:24:59.321Z,-27.9
2023-03-06T19:27:00.480Z,-28.2
2023-03-06T19:33:05.031Z,-28.2
2023-03-06T19:35:06.793Z,-27.7
2023-03-06T19:37:08.499Z,-27.9
2023-03-06T19:39:10.337Z,-28.4
2023-03-06T19:41:11.676Z,-28.2
2023-03-06T19:43:12.802Z,-27.8
2023-03-06T19:45:14.065Z,-27.6
2023-03-06T19:47:15.481Z,-28
2023-03-06T19:49:16.742Z,-27.9
2023-03-06T19:53:19.381Z,-28.2
2023-03-06T19:57:22.338Z,-27.9
2023-03-06T19:59:23.509Z,-27.7
2023-03-06T20:01:25.158Z,-28.1
2023-03-06T20:03:26.535Z,-27.8
2023-03-06T20:05:28.035Z,-52.9
2023-03-06T20:07:29.143Z,-28.2
2023-03-06T20:09:30.434Z,-27.9
2023-03-06T20:13:33.258Z,-28
2023-03-06T20:15:34.380Z,-28
2023-03-06T20:17:36.255Z,-27.8
2023-03-06T20:19:37.645Z,-53.2
2023-03-06T20:23:41.236Z,-28
2023-03-06T20:25:43.116Z,-28
2023-03-06T20:29:46.254Z,-53.2
2023-03-06T20:31:47.705Z,-28.3
2023-03-06T20:33:49.071Z,-27.8
2023-03-06T20:35:50.953Z,-28.1
2023-03-06T20:41:56.030Z,-28
2023-03-06T20:43:57.283Z,-52.7
2023-03-06T20:45:58.469Z,-27.9
2023-03-06T20:47:59.752Z,-53.5
2023-03-06T20:50:01.232Z,-27.9
2023-03-06T20:52:02.355Z,-28
2023-03-06T20:54:04.235Z,-28.4
2023-03-06T20:56:06.060Z,-28.3
2023-03-06T20:58:07.662Z,-27.9
2023-03-06T21:00:09.610Z,-28.3
2023-03-06T21:02:11.373Z,-29
2023-03-06T21:04:12.411Z,-53.3
2023-03-06T21:06:13.975Z,-28.2
2023-03-06T21:08:15.785Z,-28.2
2023-03-06T21:10:17.075Z,-28.2
2023-03-06T21:12:18.515Z,-28.4
2023-03-06T21:14:20.336Z,-28.1
2023-03-06T21:16:21.713Z,-53.3
2023-03-06T21:18:23.539Z,-27.9
2023-03-06T21:20:24.773Z,-53.5
2023-03-06T21:24:28.022Z,-28.2
2023-03-06T21:28:30.988Z,-28.3
2023-03-06T21:30:32.143Z,-28.1
2023-03-06T21:32:33.596Z,-53.5
2023-03-06T21:34:34.658Z,-28
2023-03-06T21:38:37.800Z,-53.7
2023-03-06T21:40:39.129Z,-28.3
2023-03-06T21:42:40.788Z,-28.5
2023-03-06T21:44:42.097Z,-53.1
2023-03-06T21:46:43.109Z,-28.4
2023-03-06T21:48:44.860Z,-28.2
2023-03-06T21:50:46.660Z,-28.5
2023-03-06T21:52:47.904Z,-28.2
2023-03-06T21:54:49.616Z,-48.5
2023-03-06T21:56:51.479Z,-28.2
2023-03-06T21:58:53.086Z,-28.3
2023-03-06T22:00:55.042Z,-28.4
2023-03-06T22:02:56.978Z,-28.2
2023-03-06T22:05:42.139Z,-28.7
2023-03-06T22:07:43.427Z,-28.5
2023-03-06T22:09:45.381Z,-28.3
2023-03-06T22:11:46.941Z,-53.8
2023-03-06T22:13:47.988Z,-28.3
2023-03-06T22:17:51.320Z,-28.4
2023-03-06T22:19:53.113Z,-28.2
2023-03-06T22:21:54.976Z,-28.3
2023-03-06T22:23:57.000Z,-28.4
2023-03-06T22:25:58.513Z,-28.1
2023-03-06T22:28:00.429Z,-28.6
2023-03-06T22:30:02.325Z,-28.3
2023-03-06T22:32:03.771Z,-53.5
2023-03-06T22:34:05.103Z,-28.2
2023-03-06T22:36:06.364Z,-28.3
2023-03-06T22:38:07.368Z,-28.4
2023-03-06T22:40:08.468Z,-28.4
2023-03-06T22:42:09.607Z,-28.4
2023-03-06T22:44:11.245Z,-53.1
2023-03-06T22:46:13.246Z,-28.6
2023-03-06T22:48:24.134Z,-28.2
2023-03-06T22:50:16.833Z,-28.2
2023-03-06T22:52:17.868Z,-28.4
2023-03-06T22:54:19.226Z,-28.3
2023-03-06T22:56:20.337Z,-28.2
2023-03-06T22:58:22.002Z,-28
2023-03-06T23:00:23.894Z,-28.2
2023-03-06T23:02:25.434Z,-28.3
2023-03-06T23:04:26.626Z,-53.5
2023-03-06T23:06:28.030Z,-28
2023-03-06T23:08:29.026Z,-28.3
2023-03-06T23:10:30.913Z,-28.1
2023-03-06T23:16:35.225Z,-28
2023-03-06T23:18:36.574Z,-28.2
2023-03-06T23:20:37.919Z,-53.4
2023-03-06T23:22:39.761Z,-28.4
2023-03-06T23:24:41.450Z,-28
2023-03-06T23:26:43.055Z,-28.2
2023-03-06T23:30:46.749Z,-28.3
2023-03-06T23:32:48.503Z,-28.2
2023-03-06T23:36:50.917Z,-28.2
2023-03-06T23:38:52.596Z,-28.1
2023-03-06T23:40:54.448Z,-28.4
2023-03-06T23:42:55.909Z,-53.3
2023-03-06T23:47:00.018Z,-28.2
2023-03-06T23:49:00.668Z,-53.4
2023-03-06T23:51:02.604Z,-28.3
2023-03-06T23:53:04.109Z,-28
2023-03-06T23:59:09.057Z,-28.1
